KBPT/BPT METAR and TAF weather

Enter ICAO airport designator
Station Type Date Time Source
KBPT METAR 2018/12/13 15:53 UTC NOAA

KBPT 131553Z 14006KT 9SM SCT014 BKN020 OVC038 18/17 A2982 RMK AO2 SLP096 T01830167


Station Type Date Time Source
KBPT Decoded METAR 2018/12/13 15:53 UTC NOAA

SOUTHEAST TEXAS RGNL AIRPORT, TX, United States (KBPT) 29-95N 094-08W 5M
Dec 13, 2018 - 10:53 AM EST / 2018.12.13 1553 UTC
Wind: from the SE (140 degrees) at 7 MPH (6 KT):0
Visibility: 9 mile(s):0
Sky conditions: overcast
Temperature: 64.9 F (18.3 C)
Dew Point: 62.1 F (16.7 C)
Relative Humidity: 90%
Pressure (altimeter): 29.82 in. Hg (1009 hPa)
ob: KBPT 131553Z 14006KT 9SM SCT014 BKN020 OVC038 18/17 A2982 RMK AO2 SLP096 T01830167
cycle: 16

Station Type Date Time Source
KBPT TAF 2018/12/13 12:34 UTC NOAA

TAF KBPT 131132Z 1312/1412 12009KT P6SM VCTS SCT035CB OVC060
TEMPO 1312/1314 2SM TSRA SCT015 OVC025CB
FM131600 16014G20KT P6SM VCTS OVC025CB
FM132300 19010KT P6SM VCSH OVC025
FM140400 24012KT P6SM SCT025 BKN035


Example: see airport list